createdAt,value
2023-03-18T00:02:18.393Z,2.47
2023-03-18T00:04:52.865Z,2.22
2023-03-18T00:07:25.704Z,2.50
2023-03-18T00:10:00.277Z,2.50
2023-03-18T00:12:33.258Z,3.15
2023-03-18T00:15:06.799Z,3.17
2023-03-18T00:17:40.202Z,2.45
2023-03-18T00:20:16.838Z,2.45
2023-03-18T00:22:50.958Z,2.78
2023-03-18T00:25:23.532Z,2.15
2023-03-18T00:27:56.470Z,2.35
2023-03-18T00:30:29.286Z,3.22
2023-03-18T00:33:01.989Z,2.63
2023-03-18T00:35:36.254Z,2.35
2023-03-18T00:38:09.935Z,2.88
2023-03-18T00:40:53.282Z,3.65
2023-03-18T00:43:29.342Z,3.50
2023-03-18T00:46:02.035Z,3.10
2023-03-18T00:48:34.618Z,3.30
2023-03-18T00:51:08.763Z,2.83
2023-03-18T00:53:41.719Z,3.20
2023-03-18T00:56:15.007Z,2.45
2023-03-18T00:58:47.855Z,3.05
2023-03-18T01:01:21.404Z,2.70
2023-03-18T01:03:54.889Z,3.03
2023-03-18T01:06:29.982Z,4.22
2023-03-18T01:09:04.567Z,2.60
2023-03-18T01:11:37.465Z,3.22
2023-03-18T01:14:10.381Z,3.25
2023-03-18T01:16:43.158Z,2.95
2023-03-18T01:19:16.078Z,2.90
2023-03-18T01:21:50.385Z,2.25
2023-03-18T01:24:23.566Z,2.97
2023-03-18T01:26:56.808Z,2.78
2023-03-18T01:29:29.471Z,2.47
2023-03-18T01:32:02.574Z,2.55
2023-03-18T01:34:35.403Z,2.78
2023-03-18T01:37:09.462Z,2.88
2023-03-18T01:39:44.716Z,3.03
2023-03-18T01:42:25.136Z,2.72
2023-03-18T01:45:16.163Z,2.83
2023-03-18T01:47:49.751Z,2.63
2023-03-18T01:53:00.209Z,2.58
2023-03-18T01:55:33.370Z,3.03
2023-03-18T01:58:08.334Z,2.78
2023-03-18T02:00:44.656Z,3.05
2023-03-18T02:03:17.308Z,2.90
2023-03-18T02:05:50.983Z,2.88
2023-03-18T02:08:25.109Z,3.47
2023-03-18T02:10:57.809Z,3.00
2023-03-18T02:13:31.739Z,2.55
2023-03-18T02:16:06.669Z,3.08
2023-03-18T02:18:44.162Z,2.58
2023-03-18T02:21:27.853Z,2.17
2023-03-18T02:24:07.134Z,2.95
2023-03-18T02:26:43.971Z,2.45
2023-03-18T02:29:21.160Z,2.67
2023-03-18T02:32:04.330Z,2.75
2023-03-18T02:34:38.730Z,2.72
2023-03-18T02:37:11.677Z,3.05
2023-03-18T02:42:29.983Z,2.70
2023-03-18T02:45:08.970Z,2.55
2023-03-18T02:47:48.766Z,3.15
2023-03-18T02:50:23.659Z,3.35
2023-03-18T03:53:50.514Z,3.47
2023-03-18T03:56:24.891Z,3.88
2023-03-18T03:58:57.700Z,3.70
2023-03-18T04:01:37.780Z,3.80
2023-03-18T04:04:10.427Z,3.75
2023-03-18T04:06:43.110Z,3.63
2023-03-18T04:09:17.123Z,3.67
2023-03-18T04:11:51.076Z,3.90
2023-03-18T04:14:23.794Z,4.33
2023-03-18T04:16:58.061Z,3.63
2023-03-18T04:19:30.785Z,4.13
2023-03-18T04:22:03.651Z,4.05
2023-03-18T04:24:36.652Z,3.78
2023-03-18T04:27:11.428Z,3.88
2023-03-18T04:32:17.598Z,3.83
2023-03-18T04:34:50.299Z,3.17
2023-03-18T04:37:23.804Z,3.03
2023-03-18T04:40:00.985Z,3.05
2023-03-18T04:42:36.554Z,3.38
2023-03-18T04:45:09.542Z,2.85
2023-03-18T04:47:43.421Z,3.60
2023-03-18T04:50:16.397Z,3.60
2023-03-18T04:52:49.132Z,3.95
2023-03-18T04:55:25.981Z,3.63
2023-03-18T04:58:00.471Z,2.72
2023-03-18T05:00:35.955Z,2.95
2023-03-18T05:03:21.680Z,3.00
2023-03-18T05:05:54.467Z,3.17
2023-03-18T05:08:34.468Z,3.17
2023-03-18T05:11:07.103Z,3.60
2023-03-18T05:13:42.838Z,3.65
2023-03-18T05:16:17.221Z,3.28
2023-03-18T05:18:51.988Z,3.40
2023-03-18T05:21:25.484Z,3.25
2023-03-18T05:23:58.279Z,3.65
2023-03-18T05:26:31.995Z,3.97
2023-03-18T05:29:06.777Z,3.78
2023-03-18T05:31:46.362Z,4.00
2023-03-18T05:34:19.120Z,4.10
2023-03-18T05:36:52.061Z,3.40
2023-03-18T05:39:24.908Z,3.10
2023-03-18T05:41:57.527Z,4.03
2023-03-18T05:44:35.122Z,3.33
2023-03-18T05:47:10.229Z,3.55
2023-03-18T05:49:52.352Z,3.60
2023-03-18T05:52:28.347Z,3.58
2023-03-18T05:55:05.123Z,4.45
2023-03-18T05:57:41.907Z,3.80
2023-03-18T06:00:18.628Z,4.65
2023-03-18T06:02:54.344Z,5.53
2023-03-18T06:05:27.298Z,4.05
2023-03-18T06:08:01.058Z,4.57
2023-03-18T06:10:34.442Z,5.07
2023-03-18T06:13:07.714Z,5.85
2023-03-18T06:15:41.750Z,4.53
2023-03-18T06:18:14.959Z,5.15
2023-03-18T06:20:47.668Z,4.55
2023-03-18T06:23:20.605Z,5.10
2023-03-18T06:25:53.629Z,5.63
2023-03-18T06:28:32.181Z,5.22
2023-03-18T06:31:10.622Z,4.90
2023-03-18T06:33:46.220Z,6.72
2023-03-18T06:36:21.613Z,8.15
2023-03-18T06:38:57.539Z,6.57
2023-03-18T06:41:31.425Z,8.23
2023-03-18T06:44:13.847Z,10.23
2023-03-18T06:46:48.305Z,8.20
2023-03-18T06:51:58.474Z,12.07
2023-03-18T06:54:31.296Z,11.80
2023-03-18T06:57:06.751Z,12.35
2023-03-18T06:59:41.265Z,10.80
2023-03-18T07:02:16.266Z,12.75
2023-03-18T07:04:48.898Z,10.77
2023-03-18T07:07:22.125Z,9.02
2023-03-18T07:09:54.860Z,10.32
2023-03-18T07:12:28.506Z,9.90
2023-03-18T07:15:01.237Z,10.90
2023-03-18T07:17:35.367Z,10.10
2023-03-18T07:20:09.913Z,11.55
2023-03-18T07:25:16.031Z,10.55
2023-03-18T07:27:48.622Z,10.77
2023-03-18T07:30:21.734Z,9.75
2023-03-18T07:32:56.608Z,10.13
2023-03-18T07:35:29.846Z,9.95
2023-03-18T07:38:02.457Z,10.18
2023-03-18T07:40:35.692Z,8.85
2023-03-18T07:43:09.086Z,9.05
2023-03-18T07:45:41.870Z,8.77
2023-03-18T07:48:15.841Z,9.13
2023-03-18T07:50:48.449Z,8.37
2023-03-18T07:53:21.072Z,8.75
2023-03-18T07:55:53.796Z,7.50
2023-03-18T07:58:26.567Z,6.75
2023-03-18T08:00:59.717Z,7.32
2023-03-18T08:03:33.772Z,7.00
2023-03-18T08:06:06.636Z,5.40
2023-03-18T08:08:40.311Z,6.78
2023-03-18T08:11:14.646Z,5.32
2023-03-18T08:13:47.226Z,6.57
2023-03-18T08:16:19.906Z,5.80
2023-03-18T08:18:54.021Z,6.00
2023-03-18T08:21:29.712Z,6.15
2023-03-18T08:24:02.294Z,5.70
2023-03-18T08:26:35.471Z,5.03
2023-03-18T08:29:08.126Z,5.60
2023-03-18T08:31:40.864Z,6.10
2023-03-18T08:34:15.412Z,6.00
2023-03-18T08:36:49.210Z,5.50
2023-03-18T08:39:22.598Z,5.63
2023-03-18T08:41:55.347Z,6.05
2023-03-18T08:44:27.999Z,5.88
2023-03-18T08:47:01.457Z,4.45
2023-03-18T08:49:35.545Z,5.40
2023-03-18T08:52:08.190Z,4.88
2023-03-18T08:54:40.814Z,5.82
2023-03-18T08:57:13.673Z,5.78
2023-03-18T08:59:46.623Z,5.70
2023-03-18T09:02:20.569Z,5.85
2023-03-18T09:04:54.924Z,5.87
2023-03-18T09:07:28.362Z,5.90
2023-03-18T09:10:00.974Z,6.30
2023-03-18T09:12:33.606Z,5.35
2023-03-18T09:15:07.315Z,7.07
2023-03-18T09:17:56.538Z,7.28
2023-03-18T09:20:34.650Z,7.75
2023-03-18T09:23:07.296Z,6.43
2023-03-18T09:25:40.066Z,8.52
2023-03-18T09:28:12.745Z,8.10
2023-03-18T09:30:45.418Z,6.45
2023-03-18T09:33:18.085Z,6.75
2023-03-18T09:35:52.082Z,6.03
2023-03-18T09:38:24.754Z,5.57
2023-03-18T09:41:02.885Z,7.25
2023-03-18T09:43:40.321Z,5.88
2023-03-18T09:46:20.300Z,5.20
2023-03-18T09:49:01.656Z,6.35
2023-03-18T09:51:42.383Z,5.75
2023-03-18T09:54:17.098Z,6.07
2023-03-18T09:59:25.364Z,6.20
2023-03-18T10:01:58.377Z,7.05
2023-03-18T10:04:37.169Z,6.25
2023-03-18T10:07:14.502Z,5.78
2023-03-18T10:09:48.359Z,5.85
2023-03-18T10:12:25.128Z,6.50
2023-03-18T10:15:02.297Z,5.63
2023-03-18T10:17:38.755Z,5.80
2023-03-18T10:20:16.209Z,4.85
2023-03-18T10:22:57.515Z,4.30
2023-03-18T10:25:33.694Z,4.68
2023-03-18T10:28:13.701Z,4.10
2023-03-18T10:30:54.771Z,3.67
2023-03-18T10:33:33.222Z,3.55
2023-03-18T10:36:09.425Z,3.53
2023-03-18T10:38:44.818Z,2.80
2023-03-18T10:41:22.694Z,2.75
2023-03-18T10:43:57.932Z,2.70
2023-03-18T10:46:31.597Z,2.92
2023-03-18T10:49:07.886Z,2.53
2023-03-18T10:51:43.389Z,2.28
2023-03-18T10:54:20.956Z,3.53
2023-03-18T10:56:53.755Z,2.47
2023-03-18T10:59:27.443Z,3.28
2023-03-18T11:02:02.522Z,3.40
2023-03-18T11:04:37.788Z,2.80
2023-03-18T11:07:14.943Z,2.80
2023-03-18T11:09:49.287Z,3.05
2023-03-18T11:12:25.595Z,2.80
2023-03-18T11:14:58.240Z,3.95
2023-03-18T11:17:33.105Z,3.58
2023-03-18T11:20:08.046Z,3.40
2023-03-18T11:22:45.575Z,3.40
2023-03-18T11:25:20.583Z,3.55
2023-03-18T11:27:58.044Z,3.95
2023-03-18T11:30:34.675Z,3.90
2023-03-18T11:33:14.488Z,3.20
2023-03-18T11:35:48.216Z,3.33
2023-03-18T11:38:22.748Z,3.53
2023-03-18T11:43:29.673Z,3.20
2023-03-18T11:46:04.260Z,2.92
2023-03-18T11:48:37.833Z,2.50
2023-03-18T11:51:31.804Z,2.97
2023-03-18T11:54:13.341Z,3.20
2023-03-18T11:56:49.582Z,2.67
2023-03-18T11:59:33.503Z,2.70
2023-03-18T12:02:20.686Z,2.50
2023-03-18T12:05:05.568Z,2.28
2023-03-18T12:07:47.187Z,2.58
2023-03-18T12:10:25.865Z,2.47
2023-03-18T12:13:11.658Z,2.50
2023-03-18T12:15:49.700Z,2.50
2023-03-18T12:18:35.355Z,2.15
2023-03-18T12:21:16.488Z,2.47
2023-03-18T12:24:05.766Z,2.65
2023-03-18T12:26:41.518Z,2.47
2023-03-18T12:29:34.814Z,2.25
2023-03-18T12:32:11.065Z,1.63
2023-03-18T12:34:50.222Z,1.70
2023-03-18T12:37:32.032Z,2.40
2023-03-18T12:40:13.534Z,1.55
2023-03-18T12:42:52.084Z,2.00
2023-03-18T12:45:26.609Z,2.33
2023-03-18T12:50:36.450Z,1.55
2023-03-18T12:53:14.791Z,1.30
2023-03-18T12:55:50.407Z,1.13
2023-03-18T12:58:24.178Z,1.30
2023-03-18T13:00:59.452Z,1.50
2023-03-18T13:03:33.958Z,1.45
2023-03-18T13:06:11.716Z,1.38
2023-03-18T13:08:52.138Z,1.75
2023-03-18T13:11:36.042Z,1.20
2023-03-18T13:14:15.067Z,1.30
2023-03-18T13:16:48.392Z,1.48
2023-03-18T13:19:21.108Z,1.38
2023-03-18T13:22:00.587Z,1.23
2023-03-18T13:24:53.959Z,1.38
2023-03-18T13:27:35.152Z,1.10
2023-03-18T13:30:13.348Z,1.45
2023-03-18T13:33:07.149Z,1.10
2023-03-18T13:35:52.636Z,0.95
2023-03-18T13:38:34.746Z,1.35
2023-03-18T13:41:32.212Z,2.00
2023-03-18T13:44:07.166Z,1.27
2023-03-18T13:46:41.324Z,3.85
2023-03-18T13:49:18.784Z,2.22
2023-03-18T13:51:52.984Z,1.33
2023-03-18T13:54:31.116Z,1.67
2023-03-18T13:57:17.307Z,1.20
2023-03-18T13:59:50.121Z,1.20
2023-03-18T14:02:41.305Z,2.60
2023-03-18T14:05:33.202Z,4.63
2023-03-18T14:08:07.116Z,4.47
2023-03-18T14:10:41.125Z,1.10
2023-03-18T14:13:27.465Z,0.90
2023-03-18T14:16:00.174Z,0.77
2023-03-18T14:18:37.525Z,1.10
2023-03-18T14:21:24.569Z,1.30
2023-03-18T14:24:07.603Z,1.08
2023-03-18T14:26:42.528Z,1.10
2023-03-18T14:29:25.040Z,1.17
2023-03-18T14:31:58.978Z,1.10
2023-03-18T14:34:33.044Z,0.93
2023-03-18T14:37:14.396Z,1.48
2023-03-18T14:39:47.920Z,1.60
2023-03-18T14:42:28.832Z,0.93
2023-03-18T14:45:04.701Z,1.27
2023-03-18T14:47:42.820Z,1.27
2023-03-18T14:50:18.146Z,0.90
2023-03-18T14:52:54.079Z,0.95
2023-03-18T14:55:28.635Z,1.02
2023-03-18T14:58:02.916Z,1.27
2023-03-18T15:00:36.542Z,1.20
2023-03-18T15:03:14.286Z,1.10
2023-03-18T15:05:47.430Z,1.63
2023-03-18T15:08:23.031Z,1.20
2023-03-18T15:10:56.213Z,1.58
2023-03-18T15:13:30.365Z,2.60
2023-03-18T15:16:05.033Z,1.85
2023-03-18T15:18:38.709Z,2.55
2023-03-18T15:21:14.396Z,2.35
2023-03-18T15:23:48.979Z,3.08
2023-03-18T15:28:57.304Z,1.92
2023-03-18T15:31:31.210Z,2.60
2023-03-18T15:34:08.467Z,2.25
2023-03-18T15:36:42.354Z,3.08
2023-03-18T15:39:30.860Z,3.80
2023-03-18T15:42:05.775Z,2.90
2023-03-18T15:44:40.464Z,2.22
2023-03-18T15:49:50.324Z,2.58
2023-03-18T15:52:25.001Z,2.30
2023-03-18T15:57:33.087Z,2.42
2023-03-18T16:00:08.420Z,2.25
2023-03-18T16:02:44.989Z,2.05
2023-03-18T16:05:19.740Z,2.47
2023-03-18T16:07:52.961Z,2.17
2023-03-18T16:10:26.384Z,2.53
2023-03-18T16:13:02.311Z,2.35
2023-03-18T16:15:37.409Z,2.30
2023-03-18T16:18:10.218Z,2.08
2023-03-18T16:20:45.520Z,2.10
2023-03-18T16:23:18.636Z,2.63
2023-03-18T16:25:52.179Z,1.95
2023-03-18T16:28:25.677Z,2.10
2023-03-18T16:31:00.844Z,1.70
2023-03-18T16:33:34.743Z,2.20
2023-03-18T16:36:07.665Z,1.83
2023-03-18T16:38:41.042Z,2.10
2023-03-18T16:41:14.720Z,1.98
2023-03-18T16:43:49.061Z,2.22
2023-03-18T16:46:24.802Z,1.65
2023-03-18T16:48:57.470Z,1.67
2023-03-18T16:51:30.046Z,1.73
2023-03-18T16:54:02.760Z,1.77
2023-03-18T16:56:35.531Z,1.70
2023-03-18T16:59:12.721Z,2.22
2023-03-18T17:01:47.157Z,1.85
2023-03-18T17:04:22.552Z,1.88
2023-03-18T17:06:55.331Z,1.90
2023-03-18T17:09:28.383Z,2.28
2023-03-18T17:12:03.780Z,2.10
2023-03-18T17:14:38.544Z,1.90
2023-03-18T17:17:18.430Z,2.30
2023-03-18T17:19:51.141Z,2.10
2023-03-18T17:22:25.614Z,1.95
2023-03-18T17:24:58.202Z,2.10
2023-03-18T17:27:32.431Z,2.15
2023-03-18T17:30:11.488Z,2.20
2023-03-18T17:32:46.209Z,2.97
2023-03-18T17:35:20.428Z,3.08
2023-03-18T17:37:53.877Z,2.65
2023-03-18T17:40:29.313Z,3.00
2023-03-18T17:43:02.621Z,2.85
2023-03-18T17:45:35.845Z,2.58
2023-03-18T17:48:15.726Z,3.00
2023-03-18T17:50:49.215Z,2.88
2023-03-18T17:53:23.378Z,2.78
2023-03-18T17:55:56.782Z,3.70
2023-03-18T17:58:31.071Z,2.55
2023-03-18T18:01:06.224Z,3.08
2023-03-18T18:03:40.679Z,3.30
2023-03-18T18:06:17.553Z,3.60
2023-03-18T18:08:50.717Z,4.05
2023-03-18T18:11:24.774Z,4.10
2023-03-18T18:13:59.327Z,4.43
2023-03-18T18:16:32.477Z,4.32
2023-03-18T18:19:07.572Z,4.22
2023-03-18T18:21:40.635Z,4.40
2023-03-18T18:24:14.996Z,3.47
2023-03-18T18:26:48.161Z,4.07
2023-03-18T18:29:22.118Z,3.92
2023-03-18T18:31:54.865Z,4.20
2023-03-18T18:34:28.821Z,3.90
2023-03-18T18:37:01.695Z,10.50
2023-03-18T18:39:34.412Z,15.73
2023-03-18T18:42:07.471Z,8.88
2023-03-18T18:44:40.237Z,8.43
2023-03-18T18:47:17.414Z,12.02
2023-03-18T18:49:51.894Z,11.05
2023-03-18T18:52:24.657Z,14.73
2023-03-18T18:54:57.912Z,15.55
2023-03-18T18:57:30.861Z,16.10
2023-03-18T19:00:06.877Z,14.70
2023-03-18T19:02:39.517Z,9.85
2023-03-18T19:05:14.453Z,9.63
2023-03-18T19:07:47.101Z,10.60
2023-03-18T19:10:19.749Z,11.23
2023-03-18T19:12:52.482Z,9.27
2023-03-18T19:15:25.619Z,11.05
2023-03-18T19:17:58.276Z,12.35
2023-03-18T19:20:32.354Z,12.25
2023-03-18T19:23:06.347Z,10.18
2023-03-18T19:25:38.999Z,10.53
2023-03-18T19:28:14.381Z,10.75
2023-03-18T19:30:46.990Z,10.10
2023-03-18T19:33:19.625Z,9.68
2023-03-18T19:35:53.627Z,9.25
2023-03-18T19:38:34.645Z,9.57
2023-03-18T19:41:07.237Z,10.55
2023-03-18T19:43:41.884Z,9.68
2023-03-18T19:46:16.952Z,7.95
2023-03-18T19:48:50.661Z,7.97
2023-03-18T19:51:24.762Z,8.32
2023-03-18T19:53:57.489Z,11.73
2023-03-18T19:56:31.373Z,8.32
2023-03-18T19:59:04.219Z,9.27
2023-03-18T20:01:36.876Z,8.82
2023-03-18T20:04:15.337Z,9.13
2023-03-18T20:06:50.327Z,9.98
2023-03-18T20:09:23.427Z,8.90
2023-03-18T20:11:59.487Z,9.00
2023-03-18T20:14:37.663Z,7.97
2023-03-18T20:17:25.244Z,6.22
2023-03-18T20:19:58.499Z,8.85
2023-03-18T20:22:34.276Z,8.88
2023-03-18T20:25:08.217Z,7.72
2023-03-18T20:27:41.158Z,9.30
2023-03-18T20:30:21.671Z,8.98
2023-03-18T20:32:54.681Z,7.70
2023-03-18T20:35:28.862Z,8.02
2023-03-18T20:38:05.942Z,8.80
2023-03-18T20:40:39.437Z,10.57
2023-03-18T20:43:14.062Z,9.07
2023-03-18T20:45:46.810Z,9.73
2023-03-18T20:48:19.733Z,10.25
2023-03-18T20:50:53.101Z,9.40
2023-03-18T20:53:28.411Z,9.05
2023-03-18T20:56:01.058Z,9.60
2023-03-18T20:58:33.739Z,11.68
2023-03-18T21:01:06.632Z,9.68
2023-03-18T21:03:39.617Z,8.90
2023-03-18T21:06:13.799Z,8.18
2023-03-18T21:08:47.829Z,9.27
2023-03-18T21:11:22.730Z,6.33
2023-03-18T21:16:28.230Z,8.75
2023-03-18T21:19:02.868Z,9.48
2023-03-18T21:21:38.174Z,10.25
2023-03-18T21:24:20.505Z,8.02
2023-03-18T21:27:04.324Z,7.90
2023-03-18T21:29:38.081Z,8.80
2023-03-18T21:32:14.387Z,8.57
2023-03-18T21:34:47.153Z,10.13
2023-03-18T21:37:21.047Z,8.52
2023-03-18T21:39:55.243Z,9.02
2023-03-18T21:42:28.737Z,7.03
2023-03-18T21:45:01.720Z,8.18
2023-03-18T21:47:34.409Z,7.93
2023-03-18T21:50:07.270Z,8.48
2023-03-18T21:52:39.922Z,9.95
2023-03-18T21:55:15.784Z,9.18
2023-03-18T21:57:49.299Z,7.75
2023-03-18T22:00:22.408Z,8.25
2023-03-18T22:02:55.038Z,7.78
2023-03-18T22:05:27.703Z,9.07
2023-03-18T22:08:00.371Z,8.38
2023-03-18T22:10:34.722Z,8.15
2023-03-18T22:13:15.101Z,8.55
2023-03-18T22:15:48.513Z,7.90
2023-03-18T22:18:22.053Z,7.60
2023-03-18T22:20:54.832Z,8.27
2023-03-18T22:23:29.775Z,8.65
2023-03-18T22:26:03.949Z,8.82
2023-03-18T22:28:36.548Z,9.98
2023-03-18T22:31:13.707Z,10.05
2023-03-18T22:33:46.566Z,9.98
2023-03-18T22:36:21.460Z,8.20
2023-03-18T22:41:30.251Z,9.40
2023-03-18T22:44:03.532Z,8.82
2023-03-18T22:46:36.283Z,10.38
2023-03-18T22:49:08.936Z,10.75
2023-03-18T22:51:42.057Z,9.15
2023-03-18T22:54:15.893Z,9.10
2023-03-18T22:56:50.078Z,6.88
2023-03-18T22:59:22.716Z,7.90
2023-03-18T23:01:55.422Z,8.85
2023-03-18T23:04:30.086Z,7.70
2023-03-18T23:07:02.845Z,8.48
2023-03-18T23:09:41.567Z,7.85
2023-03-18T23:12:18.594Z,8.55
2023-03-18T23:14:51.547Z,6.82
2023-03-18T23:17:25.244Z,8.52
2023-03-18T23:19:58.417Z,6.72
2023-03-18T23:22:32.228Z,6.85
2023-03-18T23:25:05.044Z,6.30
2023-03-18T23:27:39.171Z,7.35
2023-03-18T23:30:12.715Z,7.85
2023-03-18T23:32:45.394Z,7.22
2023-03-18T23:35:18.326Z,8.18
2023-03-18T23:37:51.378Z,8.30
2023-03-18T23:40:24.029Z,8.25
2023-03-18T23:42:58.028Z,6.70
2023-03-18T23:45:30.973Z,7.77
2023-03-18T23:48:03.949Z,8.30
2023-03-18T23:50:36.550Z,6.25
2023-03-18T23:53:09.157Z,7.97
2023-03-18T23:55:41.761Z,7.38
2023-03-18T23:58:16.074Z,7.03
